Flight Track Log - Related Links

Times and Time Zones

All times are in EDT time to prevent confusion due to time zone crossing. See the ACA289 flight status page for this flight to view local times or setup timezone preferences in your user account.

Time Position Orientation Groundspeed Altitude Reporting Facility
EDT Latitude Longitude Course Direction KTS MPH feet Rate Location/Type
Sun 02:08:28 PM 49.1667 -123.2333 339° North 160 184 1,600  Level Vancouver Center
Sun 02:09:28 PM 49.1833 -123.3333 284° West 220 253 3,300 2,000 Climbing Vancouver Center
Sun 02:10:00 PM 49.3905 -123.3905 327° Northwest  Level FlightAware Approximate
Sun 02:10:28 PM 49.2333 -123.3833 327° Northwest 250 288 5,600  Level Vancouver Center
Sun 02:11:00 PM 49.5004 -123.4837 327° Northwest  Level FlightAware Approximate
Sun 02:11:28 PM 49.3167 -123.3667 North 290 334 8,200  Level Vancouver Center
Sun 02:12:00 PM 49.6133 -123.5666 338° Northwest  Level FlightAware Approximate
Sun 02:12:28 PM 49.3833 -123.3333 18° North 300 345 9,000  Level Vancouver Center
Sun 02:13:00 PM 49.7201 -123.6487 339° North  Level FlightAware Approximate
Sun 02:13:28 PM 49.4667 -123.2833 21° North 320 368 10,900  Level Vancouver Center
Sun 02:14:28 PM 49.5667 -123.2333 18° North 360 414 13,200 2,200 Climbing Vancouver Center
Sun 02:15:28 PM 49.6667 -123.1833 18° North 380 437 15,300 2,100 Climbing Vancouver Center
Sun 02:16:28 PM 49.7833 -123.2000 355° North 390 449 17,400 1,950 Climbing Vancouver Center
Sun 02:17:28 PM 49.8833 -123.2500 342° North 410 472 19,200 1,950 Climbing Vancouver Center
Sun 02:18:28 PM 50.0000 -123.3333 335° Northwest 420 483 21,300 1,850 Climbing Vancouver Center
Sun 02:19:28 PM 50.1000 -123.4167 332° Northwest 420 483 22,900 1,550 Climbing Vancouver Center
Sun 02:20:28 PM 50.2000 -123.4833 337° Northwest 440 506 24,400 1,550 Climbing Vancouver Center
Sun 02:21:28 PM 50.3167 -123.5833 331° Northwest 450 518 26,000 1,400 Climbing Vancouver Center
Sun 02:23:28 PM 50.5500 -123.7500 336° Northwest 460 529 28,600 1,300 Climbing Vancouver Center
Sun 02:24:28 PM 50.6667 -123.8500 331° Northwest 460 529 29,900 1,400 Climbing Vancouver Center
Sun 02:25:28 PM 50.7833 -123.9333 336° Northwest 460 529 31,400 1,300 Climbing Vancouver Center
Sun 02:26:28 PM 50.8833 -124.0167 332° Northwest 450 518 32,500 1,100 Climbing Vancouver Center
Sun 02:27:28 PM 51.0000 -124.1167 332° Northwest 450 518 33,600 1,050 Climbing Vancouver Center
Sun 02:28:28 PM 51.1167 -124.2000 336° Northwest 450 518 34,600 950 Climbing Vancouver Center
Sun 02:29:28 PM 51.2167 -124.2833 332° Northwest 440 506 35,500 700 Climbing Vancouver Center
Sun 02:30:28 PM 51.3333 -124.3833 332° Northwest 440 506 36,000 250 Climbing Vancouver Center
Sun 02:31:28 PM 51.4500 -124.4667 336° Northwest 450 518 36,000  Level Vancouver Center
Sun 02:32:28 PM 51.5667 -124.5500 336° Northwest 450 518 36,000  Level Vancouver Center
Sun 02:33:28 PM 51.6667 -124.6333 333° Northwest 440 506 36,000  Level Vancouver Center
Sun 02:34:28 PM 51.7833 -124.7500 328° Northwest 450 518 36,000  Level Vancouver Center
Sun 02:35:28 PM 51.9000 -124.8333 336° Northwest 450 518 36,000  Level Vancouver Center
Sun 02:36:27 PM 52.0000 -124.9167 333° Northwest 440 506 36,000  Level Vancouver Center
Sun 02:37:27 PM 52.1167 -125.0167 332° Northwest 440 506 36,000  Level Vancouver Center
Sun 02:38:27 PM 52.2167 -125.1000 333° Northwest 440 506 36,000  Level Vancouver Center
Sun 02:39:27 PM 52.3333 -125.1833 336° Northwest 440 506 36,000  Level Vancouver Center
Sun 02:41:27 PM 52.5500 -125.3833 331° Northwest 450 518 36,000  Level Vancouver Center
Sun 02:42:27 PM 52.6667 -125.4833 333° Northwest 450 518 36,000  Level Vancouver Center
Sun 02:43:27 PM 52.7833 -125.5667 337° Northwest 450 518 36,000  Level Vancouver Center
Sun 02:44:27 PM 52.8833 -125.6833 325° Northwest 450 518 36,000  Level Vancouver Center
Sun 02:45:27 PM 53.0000 -125.7667 337° Northwest 450 518 36,000  Level Vancouver Center
Sun 02:46:27 PM 53.1000 -125.8500 333° Northwest 450 518 36,000  Level Vancouver Center
Sun 02:47:27 PM 53.2167 -125.9667 329° Northwest 440 506 36,000  Level Vancouver Center
Sun 02:49:00 PM 53.3685 -126.1123 330° Northwest  Level Estimated
Sun 02:49:27 PM 53.4333 -126.1500 330° Northwest 450 518 36,000  Level Vancouver Center
Sun 02:50:27 PM 53.5333 -126.2333 334° Northwest 450 518 36,000  Level Vancouver Center
Sun 02:51:27 PM 53.6500 -126.3667 326° Northwest 450 518 36,000  Level Vancouver Center
Sun 02:52:27 PM 53.7667 -126.4500 337° Northwest 460 529 36,000  Level Vancouver Center
Sun 02:53:27 PM 53.8667 -126.5500 329° Northwest 460 529 36,000  Level Vancouver Center
Sun 02:54:27 PM 54.0000 -126.6667 333° Northwest 450 518 36,000  Level Vancouver Center
Sun 02:55:27 PM 54.1000 -126.7500 334° Northwest 450 518 36,000  Level Vancouver Center
Sun 02:57:27 PM 54.3167 -126.9667 330° Northwest 450 518 36,000  Level Vancouver Center
Sun 02:59:27 PM 54.5333 -127.1833 330° Northwest 450 518 36,000  Level Vancouver Center
Sun 03:00:27 PM 54.6500 -127.2833 334° Northwest 450 518 36,000  Level Vancouver Center
Sun 03:02:00 PM 54.7991 -127.4470 328° Northwest  Level FlightAware Approximate
Sun 03:03:27 PM 54.9833 -127.6000 328° Northwest 460 529 36,000  Level Vancouver Center
Sun 03:04:27 PM 55.0833 -127.7333 323° Northwest 460 529 36,000  Level Vancouver Center
Sun 03:06:00 PM 55.2290 -127.9080 326° Northwest  Level FlightAware Approximate
Sun 03:06:27 PM 55.3167 -127.9333 326° Northwest 440 506 36,000  Level Vancouver Center
Sun 03:07:27 PM 55.4333 -128.0500 330° Northwest 470 541 36,000  Level Vancouver Center
Sun 03:08:27 PM 55.5333 -128.1500 331° Northwest 460 529 36,000  Level Vancouver Center
Sun 03:09:00 PM 55.4698 -128.2012 328° Northwest  Level FlightAware Approximate
Sun 03:09:27 PM 55.6500 -128.2833 327° Northwest 460 529 36,000  Level Vancouver Center
Sun 03:10:27 PM 55.7667 -128.3833 334° Northwest 460 529 36,000  Level Vancouver Center
Sun 03:11:27 PM 55.8667 -128.4833 331° Northwest 460 529 36,000  Level Vancouver Center
Sun 03:12:27 PM 55.9667 -128.6167 323° Northwest 450 518 36,000  Level Vancouver Center
Sun 03:13:27 PM 56.0833 -128.7333 331° Northwest 460 529 36,000  Level Vancouver Center
Sun 03:14:27 PM 56.2000 -128.8667 328° Northwest 450 518 36,000  Level Vancouver Center
Sun 03:15:27 PM 56.3167 -128.9667 335° Northwest 450 518 36,000  Level Vancouver Center
Sun 03:16:27 PM 56.4167 -129.1000 324° Northwest 450 518 36,000  Level Vancouver Center
Sun 03:17:27 PM 56.5167 -129.2000 331° Northwest 450 518 36,000  Level Vancouver Center
Sun 03:18:27 PM 56.6333 -129.3167 331° Northwest 460 529 36,000  Level Vancouver Center
Sun 03:19:27 PM 56.7333 -129.4167 331° Northwest 460 529 36,000  Level Vancouver Center
Sun 03:20:27 PM 56.8333 -129.5500 324° Northwest 450 518 36,000  Level Vancouver Center
Sun 03:21:27 PM 56.9500 -129.7000 325° Northwest 460 529 36,000  Level Vancouver Center
Sun 03:22:27 PM 57.0500 -129.8333 324° Northwest 470 541 36,000  Level Vancouver Center
Sun 03:23:27 PM 57.1500 -129.9667 324° Northwest 450 518 36,000  Level Vancouver Center
Sun 03:25:00 PM 57.3015 -130.1386 329° Northwest  Level FlightAware Approximate
Sun 03:32:00 PM 57.9825 -130.9331 328° Northwest  Level FlightAware Approximate
Sun 03:33:00 PM 58.0794 -131.0491 328° Northwest  Level FlightAware Approximate
Sun 03:34:00 PM 58.1761 -131.1656 328° Northwest  Level FlightAware Approximate
Sun 03:35:00 PM 58.2728 -131.2829 327° Northwest  Level FlightAware Approximate
Sun 03:36:00 PM 58.3694 -131.4007 327° Northwest  Level FlightAware Approximate
Sun 03:37:00 PM 58.4658 -131.5193 327° Northwest  Level FlightAware Approximate
Sun 03:38:00 PM 58.5622 -131.6384 327° Northwest  Level FlightAware Approximate
Sun 03:39:00 PM 58.6584 -131.7583 327° Northwest  Level FlightAware Approximate
Sun 03:40:00 PM 58.7545 -131.8787 327° Northwest  Level FlightAware Approximate
Sun 03:41:00 PM 58.8505 -131.9999 327° Northwest  Level FlightAware Approximate
Sun 03:42:00 PM 58.9464 -132.1217 327° Northwest  Level FlightAware Approximate
Sun 03:43:00 PM 59.0422 -132.2442 327° Northwest  Level FlightAware Approximate
Sun 03:44:00 PM 59.1378 -132.3674 327° Northwest  Level FlightAware Approximate
Sun 03:45:00 PM 59.2334 -132.4913 326° Northwest  Level FlightAware Approximate
Sun 03:46:00 PM 59.3284 -132.6176 323° Northwest  Level FlightAware Approximate
Sun 03:47:00 PM 59.4211 -132.7500 326° Northwest  Level FlightAware Approximate
Sun 03:48:00 PM 59.5162 -132.8763 326° Northwest  Level FlightAware Approximate
Sun 03:49:00 PM 59.6111 -133.0034 326° Northwest  Level FlightAware Approximate
Sun 03:50:00 PM 59.7046 -133.1349 324° Northwest  Level FlightAware Approximate
Sun 03:51:00 PM 59.7949 -133.2749 320° Northwest  Level FlightAware Approximate
Sun 03:52:00 PM 59.8889 -133.4058 325° Northwest  Level FlightAware Approximate
Sun 03:53:00 PM 59.9830 -133.5365 325° Northwest  Level FlightAware Approximate
Sun 03:54:00 PM 60.0769 -133.6683 325° Northwest  Level FlightAware Approximate
Sun 03:55:00 PM 60.1706 -133.8011 325° Northwest  Level FlightAware Approximate
Sun 03:56:00 PM 60.2639 -133.9355 324° Northwest  Level FlightAware Approximate
Sun 03:57:00 PM 60.3567 -134.0717 324° Northwest  Level FlightAware Approximate
Sun 03:58:00 PM 60.4493 -134.2085 324° Northwest  Level FlightAware Approximate
Sun 03:59:00 PM 60.5418 -134.3462 324° Northwest  Level FlightAware Approximate
Sun 04:00:00 PM 60.6343 -134.4845 324° Northwest  Level FlightAware Approximate
Sun 04:01:00 PM 60.7261 -134.6248 322° Northwest  Level FlightAware Approximate
Sun 04:02:00 PM 60.8165 -134.7693 322° Northwest  Level FlightAware Approximate
Sun 04:03:00 PM 60.9078 -134.9117 324° Northwest  Level FlightAware Approximate
Sun 04:04:00 PM 60.8513 -134.9774 189° South  Level FlightAware Approximate
Sun 04:05:00 PM 60.7420 -135.0457 194° South  Level FlightAware Approximate
Sun 04:06:00 PM 60.7095 -135.0673 194° South  Level Estimated
Sun 04:07:00 PM 60.7095 -135.0673 194° South  Level Estimated
Sun 04:08:00 PM 60.7095 -135.0673 194° South  Level Estimated
Sun 04:09:00 PM 60.7095 -135.0673 194° South  Level Estimated
Sun 04:10:00 PM 60.7095 -135.0673 194° South  Level Estimated
Sun 04:11:00 PM 60.7095 -135.0673 194° South  Level Estimated
Sun 04:12:00 PM 60.7095 -135.0673 194° South  Level Estimated

Login

Don't have an account? Register now (free) for customized features, flight alerts, and more!